Acworth, New Hampshire
Current Conditions -  °F | °C
As of 11:54 PM on Monday 26 Jan 2015 (Local Time) from KVSF Reporting Station
Overcast Overcast  
Wind Chill:   Ceiling: 9500
Heat Index: 17°   Visibility: 10mi
Dew Point: -9°   Wind: 6mph
Humidity: 31%   Direction: 40°NE
Pressure: 29.93"   Gusts: NA
Location:  43.22°N, 72.29°W
Report Text: KVSF 270454Z AUTO 04005KT 10SM SCT065 OVC095 M08/M23 A2993 RMK AO2 PRESFR SLP148 T10831228 410721183 TSNO
Loading
Personal Weather Stations






























Interactive Weather Map New forecast layout! Learn more

10-Day Weather Forecast

Advertisements
Track Severe Weather on mobile